createdAt,value
2019-02-06T09:44:41.003Z,4.80
2019-02-06T09:46:48.507Z,5.00
2019-02-06T09:48:57.546Z,4.90
2019-02-06T09:51:07.480Z,4.70
2019-02-06T09:53:18.939Z,4.80
2019-02-06T09:55:28.654Z,4.50
2019-02-06T09:57:37.504Z,4.60
2019-02-06T09:59:46.310Z,4.60
2019-02-06T10:03:28.907Z,4.60
2019-02-06T10:05:37.206Z,4.60
2019-02-06T10:07:47.698Z,4.70
2019-02-06T10:09:57.873Z,4.50
2019-02-06T10:12:07.417Z,4.50
2019-02-06T10:14:14.390Z,4.90
2019-02-06T10:16:20.507Z,4.70
2019-02-06T10:18:25.715Z,4.60
2019-02-06T10:20:37.096Z,4.80
2019-02-06T10:22:45.555Z,4.40
2019-02-06T10:24:53.111Z,4.50
2019-02-06T10:27:02.040Z,4.40
2019-02-06T10:29:11.376Z,4.60
2019-02-06T10:31:19.728Z,4.60
2019-02-06T10:33:29.903Z,4.50
2019-02-06T10:35:39.930Z,4.50
2019-02-06T10:37:46.374Z,4.40
2019-02-06T10:39:58.586Z,3.90
2019-02-06T10:42:06.739Z,3.60
2019-02-06T10:46:14.335Z,3.30
2019-02-06T10:48:21.842Z,3.30
2019-02-06T10:50:32.719Z,3.40
2019-02-06T10:52:42.115Z,3.60
2019-02-06T10:54:48.550Z,3.60
2019-02-06T10:56:57.432Z,3.20
2019-02-06T10:59:07.009Z,3.30
2019-02-06T11:01:17.270Z,3.40
2019-02-06T11:03:23.554Z,3.20
2019-02-06T11:05:34.502Z,3.10
2019-02-06T11:07:46.115Z,3.20
2019-02-06T11:09:54.810Z,3.00
2019-02-06T11:12:02.994Z,3.10
2019-02-06T11:14:12.091Z,3.30
2019-02-06T11:16:21.478Z,3.10
2019-02-06T11:18:29.404Z,3.20
2019-02-06T11:20:37.726Z,3.00
2019-02-06T11:22:42.934Z,3.00
2019-02-06T11:24:47.755Z,2.80
2019-02-06T11:26:54.523Z,2.80
2019-02-06T11:29:05.398Z,2.60
2019-02-06T11:31:12.776Z,2.80
2019-02-06T11:33:23.306Z,2.70
2019-02-06T11:35:31.778Z,2.70
2019-02-06T11:37:39.926Z,2.10
2019-02-06T11:39:57.561Z,2.20
2019-02-06T11:42:00.886Z,2.40
2019-02-06T11:44:08.236Z,2.30
2019-02-06T11:46:16.815Z,2.40
2019-02-06T11:48:25.915Z,2.40
2019-02-06T11:50:39.750Z,2.40
2019-02-06T11:52:48.279Z,2.40
2019-02-06T11:54:58.031Z,2.30
2019-02-06T11:57:07.030Z,1.90
2019-02-06T11:59:30.308Z,1.80
2019-02-06T12:01:44.968Z,1.90
2019-02-06T12:04:46.802Z,1.80
2019-02-06T12:06:58.323Z,1.90
2019-02-06T12:11:49.768Z,1.20
2019-02-06T12:14:07.303Z,1.10
2019-02-06T12:16:24.650Z,1.10
2019-02-06T12:49:14.406Z,2.20
2019-02-06T12:51:59.240Z,2.30
2019-02-06T12:55:36.304Z,2.40
2019-02-06T12:57:47.529Z,2.40
2019-02-06T13:00:06.486Z,2.50
2019-02-06T13:02:37.415Z,2.60
2019-02-06T13:08:32.581Z,2.50
2019-02-06T13:10:43.660Z,2.60
2019-02-06T13:19:31.149Z,2.50
2019-02-06T13:22:08.731Z,2.20
2019-02-06T13:29:20.937Z,2.70
2019-02-06T13:32:18.336Z,2.60
2019-02-06T13:41:25.023Z,2.70
2019-02-06T13:44:15.489Z,2.70
2019-02-06T13:52:47.020Z,2.60
2019-02-06T14:02:33.414Z,3.10
2019-02-06T14:07:31.493Z,3.00
2019-02-06T14:09:37.928Z,3.20
2019-02-06T14:16:22.107Z,3.00
2019-02-06T14:26:20.719Z,3.20
2019-02-06T14:32:48.706Z,2.90
2019-02-06T15:15:23.399Z,2.80
2019-02-06T15:18:04.651Z,2.80
2019-02-06T15:20:52.986Z,2.60
2019-02-06T15:23:54.385Z,2.50
2019-02-06T15:26:41.835Z,2.90
2019-02-06T15:29:06.203Z,2.60
2019-02-06T15:31:45.479Z,2.70
2019-02-06T15:34:35.826Z,2.70
2019-02-06T15:37:23.775Z,2.70
2019-02-06T15:40:02.190Z,2.90
2019-02-06T15:42:36.506Z,2.90
2019-02-06T15:45:25.513Z,3.10
2019-02-06T15:48:29.924Z,3.10
2019-02-06T15:50:52.175Z,3.10
2019-02-06T15:53:25.792Z,2.80
2019-02-06T15:56:23.495Z,2.90
2019-02-06T15:59:16.455Z,2.90
2019-02-06T16:01:57.613Z,2.60
2019-02-06T16:04:57.618Z,2.70
2019-02-06T16:07:52.507Z,3.00
2019-02-06T16:10:29.476Z,3.00
2019-02-06T16:13:42.822Z,2.90
2019-02-06T16:16:20.801Z,3.10
2019-02-06T16:18:46.451Z,3.00
2019-02-06T16:21:28.566Z,3.10
2019-02-06T16:24:04.639Z,3.20
2019-02-06T16:26:56.467Z,3.30
2019-02-06T16:29:38.859Z,3.30
2019-02-06T16:32:32.987Z,3.30
2019-02-06T16:34:54.636Z,3.40
2019-02-06T16:37:55.250Z,3.40
2019-02-06T16:40:39.057Z,3.50
2019-02-06T16:43:29.763Z,3.60
2019-02-06T16:46:23.897Z,3.50
2019-02-06T16:49:09.086Z,3.40
2019-02-06T16:51:25.185Z,3.50
2019-02-06T16:53:58.460Z,3.50
2019-02-06T16:56:36.331Z,3.50
2019-02-06T16:59:11.783Z,3.50
2019-02-06T17:01:52.359Z,3.70
2019-02-06T17:04:21.556Z,3.50
2019-02-06T17:07:13.135Z,3.70
2019-02-06T17:10:14.134Z,3.80
2019-02-06T17:12:51.559Z,3.50
2019-02-06T17:15:33.387Z,3.80
2019-02-06T17:17:57.571Z,3.80
2019-02-06T17:20:37.403Z,3.70
2019-02-06T17:23:15.047Z,3.50
2019-02-06T17:26:22.236Z,3.30
2019-02-06T17:28:39.122Z,3.30
2019-02-06T17:31:10.250Z,3.70
2019-02-06T17:33:54.743Z,3.50
2019-02-06T17:36:47.210Z,3.60
2019-02-06T17:39:39.002Z,3.80
2019-02-06T17:42:03.766Z,3.80
2019-02-06T17:44:38.876Z,3.70
2019-02-06T17:47:16.280Z,3.70
2019-02-06T17:49:53.818Z,3.80
2019-02-06T17:52:43.311Z,3.90
2019-02-06T17:55:21.566Z,3.80
2019-02-06T17:57:31.171Z,3.70
2019-02-06T17:59:44.766Z,3.50
2019-02-06T18:01:58.568Z,3.90
2019-02-06T18:04:15.915Z,3.70
2019-02-06T18:06:25.578Z,3.60
2019-02-06T18:08:36.070Z,3.60
2019-02-06T18:10:42.853Z,3.70
2019-02-06T18:12:49.175Z,3.90
2019-02-06T18:14:57.395Z,3.80
2019-02-06T18:17:05.332Z,3.90
2019-02-06T18:19:15.164Z,3.80
2019-02-06T18:21:21.710Z,3.80
2019-02-06T18:23:26.890Z,3.80
2019-02-06T18:25:32.142Z,3.60
2019-02-06T18:27:40.955Z,3.60
2019-02-06T18:29:52.772Z,3.80
2019-02-06T18:32:03.431Z,4.00
2019-02-06T18:34:11.055Z,3.80
2019-02-06T18:36:21.630Z,3.90
2019-02-06T18:38:32.154Z,3.90
2019-02-06T18:40:38.186Z,3.90
2019-02-06T18:42:43.741Z,3.80
2019-02-06T18:44:51.783Z,3.70
2019-02-06T18:47:03.691Z,3.80
2019-02-06T18:49:17.623Z,3.70
2019-02-06T18:51:27.544Z,4.00
2019-02-06T18:53:40.368Z,4.20
2019-02-06T18:55:51.284Z,4.30
2019-02-06T18:58:22.915Z,4.30
2019-02-06T19:00:34.985Z,4.10
2019-02-06T19:02:46.425Z,4.00
2019-02-06T19:04:58.455Z,3.90
2019-02-06T19:07:07.486Z,4.00
2019-02-06T19:09:17.960Z,3.70
2019-02-06T19:11:29.731Z,4.00
2019-02-06T19:13:37.706Z,4.00
2019-02-06T19:15:56.123Z,4.00
2019-02-06T19:17:56.327Z,4.10
2019-02-06T19:20:04.491Z,4.10
2019-02-06T19:22:14.824Z,4.00
2019-02-06T19:24:28.405Z,4.00
2019-02-06T19:26:39.857Z,4.00
2019-02-06T19:28:46.165Z,4.00
2019-02-06T19:30:57.392Z,4.00
2019-02-06T19:33:06.038Z,4.30
2019-02-06T19:35:14.311Z,4.00
2019-02-06T19:37:22.541Z,4.00
2019-02-06T19:39:35.860Z,4.10
2019-02-06T19:41:48.571Z,4.20
2019-02-06T19:43:59.923Z,4.40
2019-02-06T19:46:11.675Z,4.30
2019-02-06T19:48:22.393Z,4.30
2019-02-06T19:50:33.479Z,4.40
2019-02-06T19:52:41.287Z,4.40
2019-02-06T19:54:49.601Z,4.40
2019-02-06T19:56:58.860Z,4.40
2019-02-06T19:59:09.619Z,4.40
2019-02-06T20:01:17.626Z,4.40
2019-02-06T20:03:24.728Z,4.30
2019-02-06T20:05:34.473Z,4.30
2019-02-06T20:07:48.000Z,4.30
2019-02-06T20:09:58.117Z,4.60
2019-02-06T20:12:08.299Z,4.50
2019-02-06T20:14:16.483Z,4.30
2019-02-06T20:16:26.988Z,4.40
2019-02-06T20:18:36.022Z,4.40
2019-02-06T20:20:47.288Z,4.20
2019-02-06T20:22:58.079Z,4.40
2019-02-06T20:25:07.313Z,4.40
2019-02-06T20:27:16.743Z,4.10
2019-02-06T20:29:30.183Z,4.30
2019-02-06T20:31:39.240Z,4.30
2019-02-06T20:33:47.991Z,4.20
2019-02-06T20:35:58.128Z,4.20
2019-02-06T20:38:13.261Z,4.10
2019-02-06T20:40:26.035Z,4.40
2019-02-06T20:42:35.394Z,4.50
2019-02-06T20:44:55.081Z,4.50
2019-02-06T20:47:04.156Z,4.80
2019-02-06T20:49:16.173Z,4.70
2019-02-06T20:51:27.463Z,4.90
2019-02-06T20:53:38.635Z,5.00
2019-02-06T20:55:49.049Z,5.00
2019-02-06T20:57:54.547Z,5.00
2019-02-06T21:00:01.015Z,5.20
2019-02-06T21:02:06.971Z,5.20
2019-02-06T21:04:13.278Z,5.00
2019-02-06T21:06:20.637Z,4.80
2019-02-06T21:08:30.666Z,4.90
2019-02-06T21:10:40.223Z,4.80
2019-02-06T21:12:55.160Z,5.00
2019-02-06T21:15:03.670Z,5.00
2019-02-06T21:17:17.996Z,4.80
2019-02-06T21:19:28.217Z,5.00
2019-02-06T21:21:38.214Z,4.90
2019-02-06T21:23:48.647Z,5.10
2019-02-06T21:26:02.679Z,4.90
2019-02-06T21:28:12.639Z,4.80
2019-02-06T21:30:23.783Z,4.70
2019-02-06T21:32:33.990Z,4.70
2019-02-06T21:34:43.132Z,4.80
2019-02-06T21:36:52.793Z,5.10
2019-02-06T21:39:04.299Z,5.20
2019-02-06T21:41:15.695Z,5.20
2019-02-06T21:43:25.063Z,5.20
2019-02-06T21:45:34.772Z,5.30
2019-02-06T21:47:47.035Z,5.00
2019-02-06T21:49:59.319Z,5.00
2019-02-06T21:52:07.717Z,5.10
2019-02-06T21:54:17.887Z,5.10
2019-02-06T21:56:23.235Z,5.10
2019-02-06T21:58:36.811Z,5.20
2019-02-06T22:00:46.536Z,5.00
2019-02-06T22:02:56.193Z,5.00
2019-02-06T22:05:05.290Z,4.90
2019-02-06T22:07:16.863Z,5.00
2019-02-06T22:09:24.852Z,5.00
2019-02-06T22:11:37.932Z,4.80
2019-02-06T22:13:54.914Z,4.80
2019-02-06T22:15:57.113Z,4.70
2019-02-06T22:18:08.077Z,4.80
2019-02-06T22:20:16.215Z,5.00
2019-02-06T22:22:25.564Z,5.10
2019-02-06T22:24:37.222Z,5.00
2019-02-06T22:26:46.943Z,4.90
2019-02-06T22:28:55.884Z,5.00
2019-02-06T22:31:10.151Z,5.00
2019-02-06T22:33:21.993Z,5.00
2019-02-06T22:35:35.098Z,4.80
2019-02-06T22:37:47.015Z,4.80
2019-02-06T22:39:57.207Z,4.80
2019-02-06T22:42:08.680Z,4.70
2019-02-06T22:44:17.447Z,4.70
2019-02-06T22:46:25.181Z,4.80
2019-02-06T22:48:34.535Z,4.90
2019-02-06T22:50:45.959Z,5.10
2019-02-06T22:52:54.990Z,4.90
2019-02-06T22:55:09.647Z,4.90
2019-02-06T22:57:21.670Z,4.80
2019-02-06T22:59:30.724Z,4.50
2019-02-06T23:01:45.579Z,4.70
2019-02-06T23:03:55.019Z,4.80
2019-02-06T23:06:08.623Z,4.60
2019-02-06T23:08:16.858Z,4.60
2019-02-06T23:10:29.831Z,4.60
2019-02-06T23:12:40.019Z,4.80
2019-02-06T23:14:52.168Z,4.80
2019-02-06T23:17:03.067Z,4.70
2019-02-06T23:19:13.853Z,4.50
2019-02-06T23:21:27.006Z,4.50
2019-02-06T23:23:34.633Z,4.60
2019-02-06T23:25:45.033Z,4.60
2019-02-06T23:27:56.039Z,4.60
2019-02-06T23:30:06.227Z,4.60
2019-02-06T23:32:18.889Z,4.60
2019-02-06T23:34:28.495Z,4.50
2019-02-06T23:36:34.479Z,4.60
2019-02-06T23:38:40.085Z,4.80
2019-02-06T23:40:52.656Z,4.60
2019-02-06T23:43:03.497Z,4.60
2019-02-06T23:45:12.492Z,4.70
2019-02-06T23:47:21.516Z,4.80
2019-02-06T23:49:31.721Z,4.70
2019-02-06T23:51:40.105Z,4.60
2019-02-06T23:53:48.636Z,5.00
2019-02-06T23:55:57.995Z,4.80
2019-02-06T23:58:06.811Z,4.90
